Time;durP1;ratioP1;P1;durP2;ratioP2;P2;SDS_P1;SDS_P2;PMS_P1;PMS_P2;Temp;Humidity;BMP_temperature;BMP_pressure;BME280_temperature;BME280_humidity;BME280_pressure;Samples;Min_cycle;Max_cycle;Signal;HPM_P1;HPM_P2
2022/06/10 00:00:48;;;;;;;60.78;49.60;;;22.20;57.40;;;;;;4923032;28;85843;-63
2022/06/10 00:03:15;;;;;;;61.40;49.63;;;22.20;57.40;;;;;;4924528;28;86361;-63
2022/06/10 00:05:43;;;;;;;60.92;49.45;;;22.10;57.30;;;;;;4922438;28;90791;-63
2022/06/10 00:08:15;;;;;;;61.50;49.60;;;22.20;57.70;;;;;;4918952;28;86807;-63
2022/06/10 00:10:41;;;;;;;60.28;49.72;;;22.10;57.40;;;;;;4917390;28;89169;-64
2022/06/10 00:13:07;;;;;;;61.05;49.67;;;22.10;57.50;;;;;;4917172;28;86136;-63
2022/06/10 00:15:34;;;;;;;60.38;49.60;;;22.10;57.50;;;;;;4927214;28;86441;-63
2022/06/10 00:18:00;;;;;;;61.70;49.70;;;22.10;57.50;;;;;;4919662;28;85713;-63
2022/06/10 00:20:29;;;;;;;60.90;49.63;;;22.10;57.60;;;;;;4917752;28;90357;-63
2022/06/10 00:22:55;;;;;;;59.10;49.50;;;22.10;57.70;;;;;;4923359;28;89238;-63
2022/06/10 00:25:21;;;;;;;59.95;49.65;;;22.10;57.60;;;;;;4911257;28;87342;-64
2022/06/10 00:27:48;;;;;;;60.30;49.47;;;22.10;57.70;;;;;;4924418;28;86215;-63
2022/06/10 00:30:16;;;;;;;60.17;49.63;;;22.10;57.60;;;;;;4921154;28;85929;-63
2022/06/10 00:32:41;;;;;;;60.88;49.42;;;22.00;57.70;;;;;;4922883;28;86704;-63
2022/06/10 00:35:08;;;;;;;59.42;49.53;;;22.00;57.70;;;;;;4916891;28;87415;-63
2022/06/10 00:37:34;;;;;;;59.53;49.50;;;22.10;57.70;;;;;;4917228;28;86228;-63
2022/06/10 00:40:00;;;;;;;61.47;49.65;;;22.10;57.80;;;;;;4919445;28;87318;-63
2022/06/10 00:42:26;;;;;;;59.65;49.33;;;22.10;57.70;;;;;;4921413;28;90833;-63
2022/06/10 00:44:54;;;;;;;60.40;49.67;;;22.00;57.90;;;;;;4921166;28;85649;-63
2022/06/10 00:47:34;;;;;;;59.67;49.33;;;22.10;57.90;;;;;;4923342;28;85639;-63
2022/06/10 00:50:14;;;;;;;59.25;49.50;;;22.00;57.80;;;;;;4919236;28;91249;-63
2022/06/10 00:52:44;;;;;;;61.10;49.47;;;22.00;57.90;;;;;;4928296;28;86198;-63
2022/06/10 00:55:10;;;;;;;61.17;49.58;;;22.00;58.00;;;;;;4919783;28;85240;-63
2022/06/10 00:57:40;;;;;;;59.70;49.60;;;22.00;58.00;;;;;;4924463;28;85612;-63
2022/06/10 01:00:07;;;;;;;58.90;49.38;;;22.00;57.90;;;;;;4916238;28;90972;-64
2022/06/10 01:02:35;;;;;;;61.03;49.58;;;22.00;57.90;;;;;;4916288;28;85584;-63
2022/06/10 01:05:09;;;;;;;58.72;49.35;;;22.00;57.90;;;;;;4913966;28;85945;-63
2022/06/10 01:07:38;;;;;;;59.35;49.42;;;22.00;57.90;;;;;;4917956;28;86985;-63
2022/06/10 01:10:07;;;;;;;60.38;49.45;;;22.00;57.90;;;;;;4919537;28;86379;-63
2022/06/10 01:12:38;;;;;;;58.33;49.22;;;22.00;57.90;;;;;;4915653;28;86672;-63
2022/06/10 01:15:19;;;;;;;58.80;49.42;;;22.00;57.80;;;;;;4915698;28;86861;-63
2022/06/10 01:18:12;;;;;;;59.17;49.55;;;22.00;57.90;;;;;;4923124;28;86403;-63
2022/06/10 01:21:27;;;;;;;60.03;49.47;;;22.00;57.90;;;;;;4927415;28;85803;-63
2022/06/10 01:24:06;;;;;;;60.88;49.50;;;22.00;58.00;;;;;;4880777;28;86469;-63
2022/06/10 01:30:20;;;;;;;58.92;49.28;;;22.00;58.00;;;;;;4915583;28;86679;-63
2022/06/10 01:32:51;;;;;;;60.47;49.65;;;22.00;57.90;;;;;;4933079;28;86083;-64
2022/06/10 01:35:18;;;;;;;;;;;22.00;57.90;;;;;;4928619;28;85149;-64
2022/06/10 01:38:13;;;;;;;59.28;49.25;;;22.10;57.90;;;;;;4927510;28;85262;-63
2022/06/10 01:40:53;;;;;;;58.55;49.05;;;22.00;58.00;;;;;;4913664;28;85325;-63
2022/06/10 01:43:42;;;;;;;60.00;49.55;;;22.00;58.10;;;;;;4921103;28;86426;-64
2022/06/10 01:46:25;;;;;;;60.60;49.63;;;22.00;58.10;;;;;;4904481;28;86287;-63
2022/06/10 01:49:09;;;;;;;59.47;49.65;;;22.00;58.10;;;;;;4921654;28;88374;-63
2022/06/10 01:52:14;;;;;;;59.65;49.42;;;22.00;58.10;;;;;;4919678;28;85706;-63
2022/06/10 01:54:48;;;;;;;61.30;49.53;;;22.00;58.10;;;;;;4922956;28;85784;-63
2022/06/10 01:57:26;;;;;;;59.80;49.75;;;21.90;58.10;;;;;;4939679;28;85636;-63
2022/06/10 01:59:58;;;;;;;58.95;49.63;;;22.00;58.20;;;;;;4926669;28;85019;-63
2022/06/10 02:02:31;;;;;;;60.08;49.50;;;22.00;58.20;;;;;;4929949;28;87169;-63
2022/06/10 02:05:12;;;;;;;59.35;49.53;;;21.90;58.20;;;;;;4934550;28;87577;-63
2022/06/10 02:07:43;;;;;;;58.53;49.42;;;22.00;58.30;;;;;;4929018;28;86731;-64
2022/06/10 02:10:28;;;;;;;59.35;49.42;;;21.90;58.20;;;;;;4931487;28;87687;-63
2022/06/10 02:13:06;;;;;;;60.17;49.60;;;22.00;58.20;;;;;;4924755;28;85868;-64
2022/06/10 02:15:52;;;;;;;58.95;49.42;;;22.00;58.20;;;;;;4927426;28;90636;-63
2022/06/10 02:18:29;;;;;;;60.70;49.55;;;21.90;58.20;;;;;;4926210;28;85796;-63
2022/06/10 02:21:01;;;;;;;59.72;49.55;;;21.90;58.20;;;;;;4936790;28;85625;-63
2022/06/10 02:23:33;;;;;;;60.22;49.35;;;22.00;58.30;;;;;;4937434;28;85470;-63
2022/06/10 02:26:00;;;;;;;59.67;49.53;;;21.90;58.30;;;;;;4929113;28;86272;-63
2022/06/10 02:28:39;;;;;;;59.25;49.38;;;21.90;58.40;;;;;;4932921;28;86063;-63
2022/06/10 02:31:14;;;;;;;59.80;49.55;;;21.90;58.50;;;;;;4930632;28;89182;-63
2022/06/10 02:33:40;;;;;;;60.15;49.63;;;21.90;58.50;;;;;;4937602;28;86632;-63
2022/06/10 02:36:22;;;;;;;59.63;49.33;;;21.90;58.40;;;;;;4928752;28;86124;-63
2022/06/10 02:38:50;;;;;;;;;;;21.90;58.30;;;;;;4938714;28;90955;-63
2022/06/10 02:41:18;;;;;;;59.85;49.60;;;21.90;58.40;;;;;;4929998;28;85008;-63
2022/06/10 02:43:58;;;;;;;60.05;49.55;;;21.80;58.50;;;;;;4933355;28;85321;-63
2022/06/10 02:46:32;;;;;;;58.72;49.60;;;21.80;58.70;;;;;;4932486;28;91035;-64
2022/06/10 02:49:05;;;;;;;60.35;49.50;;;21.80;58.70;;;;;;4928337;28;85211;-63
2022/06/10 02:51:32;;;;;;;60.63;49.55;;;21.80;58.60;;;;;;4932719;28;86680;-63
2022/06/10 02:53:59;;;;;;;60.13;49.38;;;21.80;58.60;;;;;;4931127;28;85450;-63
2022/06/10 02:56:27;;;;;;;59.40;49.20;;;21.80;59.40;;;;;;4919207;28;87078;-63
2022/06/10 03:02:18;;;;;;;58.90;49.33;;;21.80;58.60;;;;;;4919629;28;86940;-63
2022/06/10 03:04:44;;;;;;;58.92;49.33;;;21.90;58.60;;;;;;4919150;28;86606;-63
2022/06/10 03:07:19;;;;;;;59.88;49.33;;;21.80;58.50;;;;;;4925395;28;85361;-63
2022/06/10 03:10:04;;;;;;;59.63;49.42;;;21.80;58.60;;;;;;4928302;28;85451;-63
2022/06/10 03:13:09;;;;;;;59.03;49.15;;;21.80;58.80;;;;;;4908508;28;94865;-63
2022/06/10 03:16:00;;;;;;;59.85;49.83;;;21.80;58.70;;;;;;4921479;28;85587;-63
2022/06/10 03:18:55;;;;;;;62.13;49.30;;;21.80;58.80;;;;;;4921769;28;85941;-63
2022/06/10 03:21:33;;;;;;;59.55;49.25;;;21.80;58.90;;;;;;4915843;28;88981;-63
2022/06/10 03:24:18;;;;;;;59.17;49.60;;;21.80;58.90;;;;;;4925513;28;86187;-63
2022/06/10 03:27:14;;;;;;;59.53;49.60;;;21.80;59.00;;;;;;4924778;28;85240;-63
2022/06/10 03:30:04;;;;;;;58.92;49.50;;;21.80;58.90;;;;;;4924122;28;87699;-63
2022/06/10 03:32:34;;;;;;;59.97;49.17;;;21.80;58.90;;;;;;4929566;28;86851;-63
2022/06/10 03:35:10;;;;;;;59.15;49.42;;;21.80;58.90;;;;;;4928780;28;85605;-63
2022/06/10 03:37:39;;;;;;;59.28;49.45;;;21.80;58.80;;;;;;4930569;28;89477;-63
2022/06/10 03:40:06;;;;;;;60.33;49.55;;;21.80;58.80;;;;;;4926608;28;85853;-63
2022/06/10 03:42:32;;;;;;;59.72;49.38;;;21.80;58.80;;;;;;4912538;28;90635;-63
2022/06/10 03:44:59;;;;;;;60.38;49.58;;;21.80;58.80;;;;;;4914618;28;90701;-63
2022/06/10 03:47:33;;;;;;;58.28;49.22;;;21.80;58.80;;;;;;4919413;28;90321;-63
2022/06/10 03:50:06;;;;;;;58.70;49.35;;;21.80;58.90;;;;;;4918704;28;91856;-63
2022/06/10 03:52:35;;;;;;;59.08;49.38;;;21.80;58.90;;;;;;4918462;28;92260;-63
2022/06/10 03:55:01;;;;;;;59.90;49.30;;;21.80;58.90;;;;;;4919020;28;91248;-65
2022/06/10 03:57:27;;;;;;;58.85;49.25;;;21.80;58.90;;;;;;4919193;28;90811;-64
2022/06/10 03:59:53;;;;;;;58.63;49.38;;;21.80;58.90;;;;;;4921600;28;90067;-64
2022/06/10 04:02:19;;;;;;;58.97;49.20;;;21.80;58.80;;;;;;4913259;28;90109;-63
2022/06/10 04:04:45;;;;;;;59.03;49.15;;;21.80;58.70;;;;;;4917605;28;89677;-63
2022/06/10 04:07:17;;;;;;;59.38;49.40;;;21.80;58.80;;;;;;4914609;28;91755;-64
2022/06/10 04:09:43;;;;;;;58.60;49.22;;;21.80;58.80;;;;;;4915594;28;93226;-64
2022/06/10 04:12:09;;;;;;;59.80;49.50;;;21.80;59.50;;;;;;4917439;28;88554;-63
2022/06/10 04:14:35;;;;;;;58.42;49.55;;;21.80;58.90;;;;;;4909404;28;90286;-63
2022/06/10 04:17:01;;;;;;;59.05;49.38;;;21.80;58.90;;;;;;4915217;28;94705;-63
2022/06/10 04:19:27;;;;;;;58.92;49.33;;;21.80;58.90;;;;;;4919354;28;91248;-63
2022/06/10 04:21:53;;;;;;;59.60;49.53;;;21.70;59.00;;;;;;4917443;28;90988;-63
2022/06/10 04:24:18;;;;;;;58.60;49.25;;;21.80;59.00;;;;;;4913363;28;91350;-64
2022/06/10 04:26:44;;;;;;;59.92;49.20;;;21.80;58.90;;;;;;4914372;28;90174;-63
2022/06/10 04:29:13;;;;;;;60.20;49.33;;;21.80;58.90;;;;;;4907263;28;90370;-63
2022/06/10 04:31:39;;;;;;;58.88;49.35;;;21.80;58.90;;;;;;4911234;28;90315;-64
2022/06/10 04:34:05;;;;;;;58.80;49.50;;;21.80;58.90;;;;;;4914589;28;90115;-63
2022/06/10 04:36:31;;;;;;;60.28;49.53;;;21.70;59.00;;;;;;4916272;28;90496;-63
2022/06/10 04:38:56;;;;;;;60.22;49.53;;;21.80;58.90;;;;;;4916788;28;91541;-63
2022/06/10 04:41:22;;;;;;;59.05;49.60;;;21.80;58.80;;;;;;4906274;28;91828;-63
2022/06/10 04:43:48;;;;;;;59.00;49.25;;;21.80;58.90;;;;;;4921354;28;91987;-63
2022/06/10 04:46:29;;;;;;;59.70;49.53;;;21.80;58.70;;;;;;4919053;28;91504;-63
2022/06/10 04:48:55;;;;;;;58.67;49.47;;;21.90;58.70;;;;;;4909928;28;89555;-63
2022/06/10 04:51:22;;;;;;;58.25;49.30;;;21.80;58.70;;;;;;4917896;28;90470;-63
2022/06/10 04:53:47;;;;;;;58.78;49.55;;;21.90;58.60;;;;;;4919312;28;92034;-63
2022/06/10 04:56:13;;;;;;;58.60;49.28;;;21.90;58.60;;;;;;4918703;28;90016;-64
2022/06/10 04:58:39;;;;;;;58.97;49.35;;;21.90;58.60;;;;;;4910780;28;90290;-64
2022/06/10 05:01:05;;;;;;;58.75;49.38;;;21.90;58.70;;;;;;4914857;28;91206;-64
2022/06/10 05:03:31;;;;;;;57.88;49.15;;;21.80;58.80;;;;;;4906971;28;94830;-63
2022/06/10 05:05:57;;;;;;;59.63;49.45;;;21.90;58.90;;;;;;4908266;28;90627;-63
2022/06/10 05:08:23;;;;;;;58.72;49.13;;;21.80;58.80;;;;;;4913063;28;90588;-63
2022/06/10 05:10:48;;;;;;;57.90;49.00;;;21.90;58.70;;;;;;4915480;28;91732;-63
2022/06/10 05:13:20;;;;;;;59.90;49.47;;;21.90;58.60;;;;;;4906108;28;92484;-63
2022/06/10 05:15:46;;;;;;;59.35;49.25;;;21.90;58.80;;;;;;4919006;28;90604;-63
2022/06/10 05:18:15;;;;;;;60.85;49.72;;;21.80;58.70;;;;;;4913352;28;91411;-63
2022/06/10 05:20:42;;;;;;;58.70;49.22;;;21.80;58.80;;;;;;4909920;28;90374;-63
2022/06/10 05:23:11;;;;;;;59.63;49.05;;;21.90;59.00;;;;;;4919798;28;91246;-63
2022/06/10 05:25:39;;;;;;;59.63;49.05;;;21.80;59.10;;;;;;4910205;28;91770;-62
2022/06/10 05:28:06;;;;;;;59.28;49.10;;;21.80;59.20;;;;;;4905740;28;92913;-63
2022/06/10 05:30:33;;;;;;;59.33;49.25;;;21.80;59.20;;;;;;4915056;28;90523;-63
2022/06/10 05:33:00;;;;;;;58.90;49.13;;;21.70;59.20;;;;;;4922964;28;90919;-63
2022/06/10 05:35:27;;;;;;;59.30;49.38;;;21.80;59.30;;;;;;4924578;28;90803;-62
2022/06/10 05:37:53;;;;;;;60.15;49.38;;;21.70;59.20;;;;;;4896332;28;90967;-59
2022/06/10 05:40:23;;;;;;;61.42;49.47;;;21.90;59.40;;;;;;4907363;28;89897;-61
2022/06/10 05:42:49;;;;;;;58.75;49.45;;;22.00;59.40;;;;;;4895840;28;93544;-61
2022/06/10 05:45:17;;;;;;;60.03;48.90;;;22.10;59.40;;;;;;4911862;28;90942;-61
2022/06/10 05:47:46;;;;;;;59.38;49.45;;;22.00;59.30;;;;;;4908931;28;90441;-61
2022/06/10 05:50:21;;;;;;;61.88;49.45;;;21.90;59.50;;;;;;4906665;28;90207;-61
2022/06/10 05:52:47;;;;;;;60.00;49.60;;;21.80;59.80;;;;;;4901545;28;89917;-61
2022/06/10 05:55:13;;;;;;;58.35;49.08;;;21.90;59.80;;;;;;4896704;28;90091;-61
2022/06/10 05:57:40;;;;;;;59.97;49.35;;;21.90;59.70;;;;;;4894560;28;92271;-61
2022/06/10 06:00:13;;;;;;;59.85;49.33;;;22.00;59.40;;;;;;4894472;28;90348;-61
2022/06/10 06:02:41;;;;;;;61.55;49.83;;;21.80;59.60;;;;;;4889258;28;90260;-62
2022/06/10 06:05:09;;;;;;;64.35;50.55;;;21.90;59.70;;;;;;4895976;28;90393;-60
2022/06/10 06:07:35;;;;;;;66.78;50.50;;;21.90;59.70;;;;;;4890951;28;91425;-61
2022/06/10 06:10:02;;;;;;;64.53;50.80;;;21.80;59.80;;;;;;4896125;28;90494;-61
2022/06/10 06:12:28;;;;;;;63.17;50.17;;;21.80;59.70;;;;;;4904717;28;97722;-61
2022/06/10 06:14:54;;;;;;;63.85;50.60;;;21.90;59.70;;;;;;4892092;28;91481;-61
2022/06/10 06:17:20;;;;;;;64.43;50.72;;;21.90;59.60;;;;;;4895337;28;91702;-62
2022/06/10 06:19:46;;;;;;;67.20;51.50;;;21.90;59.50;;;;;;4894443;28;90523;-62
2022/06/10 06:22:11;;;;;;;66.45;51.05;;;21.90;59.70;;;;;;4897111;28;91357;-61
2022/06/10 06:24:38;;;;;;;64.10;51.10;;;21.90;59.50;;;;;;4900780;28;92793;-62
2022/06/10 06:27:06;;;;;;;64.75;50.83;;;22.00;59.50;;;;;;4900801;28;91666;-61
2022/06/10 06:29:32;;;;;;;65.95;50.50;;;22.00;59.50;;;;;;4889341;28;90908;-62
2022/06/10 06:31:58;;;;;;;63.25;50.90;;;21.90;59.50;;;;;;4887530;28;90922;-62
2022/06/10 06:34:25;;;;;;;62.17;50.35;;;21.90;59.40;;;;;;4894026;28;90721;-61
2022/06/10 06:36:54;;;;;;;65.50;50.67;;;21.90;59.40;;;;;;4902432;28;93272;-62
2022/06/10 06:39:23;;;;;;;62.00;50.70;;;22.00;59.50;;;;;;4888285;28;89690;-61
2022/06/10 06:41:50;;;;;;;66.22;50.72;;;22.00;59.70;;;;;;4894515;28;92842;-61
2022/06/10 06:44:16;;;;;;;63.28;50.45;;;22.00;59.50;;;;;;4900172;28;91883;-60
2022/06/10 06:46:43;;;;;;;62.75;50.25;;;22.00;59.60;;;;;;4902849;28;93397;-61
2022/06/10 06:49:13;;;;;;;63.70;49.92;;;22.00;59.70;;;;;;4891104;28;91630;-60
2022/06/10 06:51:40;;;;;;;63.27;50.07;;;22.00;59.60;;;;;;4891315;28;93226;-61
2022/06/10 06:54:09;;;;;;;61.90;50.50;;;22.00;59.70;;;;;;4894695;28;90818;-61
2022/06/10 06:56:36;;;;;;;62.75;50.25;;;22.10;59.60;;;;;;4890825;28;91848;-60
2022/06/10 06:59:03;;;;;;;61.83;50.22;;;22.10;59.50;;;;;;4894038;28;91468;-62
2022/06/10 07:01:29;;;;;;;61.78;50.03;;;22.10;59.50;;;;;;4890320;28;91386;-61
2022/06/10 07:03:54;;;;;;;61.92;50.47;;;22.10;59.40;;;;;;4903312;28;89974;-61
2022/06/10 07:06:20;;;;;;;64.18;50.45;;;22.20;59.60;;;;;;4893535;28;91767;-61
2022/06/10 07:08:46;;;;;;;61.33;50.35;;;22.20;59.60;;;;;;4898724;28;92249;-61
2022/06/10 07:11:12;;;;;;;63.13;50.55;;;22.20;59.50;;;;;;4903675;28;91227;-61
2022/06/10 07:13:38;;;;;;;65.10;50.60;;;22.30;59.70;;;;;;4912648;28;89528;-61
2022/06/10 07:16:05;;;;;;;66.28;50.72;;;22.30;59.60;;;;;;4901254;28;90313;-61
2022/06/10 07:18:32;;;;;;;63.97;50.60;;;22.30;59.60;;;;;;4899616;28;91067;-60
2022/06/10 07:20:58;;;;;;;63.17;50.58;;;22.40;59.60;;;;;;4893864;28;92787;-60
2022/06/10 07:23:25;;;;;;;63.72;50.50;;;22.40;59.60;;;;;;4904245;28;91606;-64
2022/06/10 07:25:50;;;;;;;63.47;50.85;;;22.40;59.60;;;;;;4914076;28;90347;-61
2022/06/10 07:28:16;;;;;;;63.30;50.97;;;22.40;59.60;;;;;;4900893;28;93836;-61
2022/06/10 07:30:43;;;;;;;64.15;50.83;;;22.50;60.30;;;;;;4899911;28;90662;-61
2022/06/10 07:33:09;;;;;;;63.08;50.47;;;22.50;59.70;;;;;;4911039;28;90765;-61
2022/06/10 07:35:35;;;;;;;64.13;50.45;;;22.50;59.70;;;;;;4906399;28;91549;-61
2022/06/10 07:38:02;;;;;;;65.85;50.95;;;22.50;59.70;;;;;;4898832;28;90737;-61
2022/06/10 07:43:20;;;;;;;65.82;50.42;;;22.60;59.70;;;;;;4907265;28;91322;-61
2022/06/10 07:45:46;;;;;;;64.95;50.85;;;22.60;59.70;;;;;;4893676;28;90525;-61
2022/06/10 07:48:12;;;;;;;63.97;50.40;;;22.60;59.60;;;;;;4900637;28;90198;-61
2022/06/10 07:50:40;;;;;;;66.85;50.92;;;22.60;59.60;;;;;;4904237;28;94567;-62
2022/06/10 07:53:07;;;;;;;61.90;50.42;;;22.70;59.70;;;;;;4914215;28;89761;-61
2022/06/10 07:55:33;;;;;;;64.32;50.85;;;22.70;59.80;;;;;;4917016;28;89868;-61
2022/06/10 07:57:59;;;;;;;64.78;51.08;;;22.70;59.80;;;;;;4917899;28;92296;-61
2022/06/10 08:00:26;;;;;;;65.72;51.08;;;22.70;59.90;;;;;;4903865;28;92060;-61
2022/06/10 08:02:52;;;;;;;62.20;50.53;;;22.70;59.90;;;;;;4905585;28;90928;-61
2022/06/10 08:05:19;;;;;;;63.78;50.65;;;22.70;59.90;;;;;;4906567;28;90196;-60
2022/06/10 08:07:45;;;;;;;66.80;51.03;;;22.70;60.00;;;;;;4917071;28;91124;-62
2022/06/10 08:10:26;;;;;;;63.55;50.63;;;22.80;60.10;;;;;;4898125;28;92786;-61
2022/06/10 08:12:52;;;;;;;63.28;50.50;;;22.80;60.00;;;;;;4903368;28;92958;-61
2022/06/10 08:15:19;;;;;;;65.72;50.70;;;22.80;60.00;;;;;;4912645;28;91728;-62
2022/06/10 08:17:46;;;;;;;67.32;50.80;;;22.70;60.00;;;;;;4908719;28;90321;-61
2022/06/10 08:20:21;;;;;;;64.28;50.60;;;22.80;60.20;;;;;;4901374;28;90211;-61
2022/06/10 08:22:47;;;;;;;64.47;50.80;;;22.80;60.10;;;;;;4917573;28;93935;-61
2022/06/10 08:25:14;;;;;;;63.13;50.58;;;22.80;60.10;;;;;;4907093;28;90942;-60
2022/06/10 08:27:40;;;;;;;62.85;50.60;;;22.80;60.10;;;;;;4914661;28;92101;-61
2022/06/10 08:30:09;;;;;;;63.50;50.55;;;22.80;60.10;;;;;;4901257;28;92901;-61
2022/06/10 08:32:35;;;;;;;63.55;50.55;;;22.80;60.10;;;;;;4904223;28;92597;-60
2022/06/10 08:35:01;;;;;;;63.55;50.83;;;22.80;60.10;;;;;;4915029;28;90056;-61
2022/06/10 08:37:26;;;;;;;65.85;51.10;;;22.80;60.10;;;;;;4915508;28;91024;-61
2022/06/10 08:39:52;;;;;;;61.97;50.58;;;22.80;60.10;;;;;;4911734;28;90387;-60
2022/06/10 08:42:39;;;;;;;61.97;50.75;;;22.80;60.20;;;;;;4905560;28;91307;-61
2022/06/10 08:45:21;;;;;;;64.00;50.25;;;22.80;60.10;;;;;;4910949;28;90178;-61
2022/06/10 08:48:02;;;;;;;63.78;50.47;;;22.80;60.20;;;;;;4910474;28;91468;-62
2022/06/10 08:50:42;;;;;;;63.65;50.63;;;22.90;60.40;;;;;;4905244;28;91717;-62
2022/06/10 08:53:14;;;;;;;66.23;50.83;;;22.90;60.40;;;;;;4911278;28;95872;-62
2022/06/10 08:56:12;;;;;;;62.85;50.45;;;22.90;60.30;;;;;;4908224;28;91477;-62
2022/06/10 08:58:45;;;;;;;62.60;50.67;;;22.90;60.30;;;;;;4920387;28;93026;-61
2022/06/10 09:01:18;;;;;;;66.30;50.75;;;22.90;60.30;;;;;;4929283;28;90253;-62
2022/06/10 09:04:13;;;;;;;62.72;50.50;;;22.90;60.80;;;;;;4925976;28;94970;-62
2022/06/10 09:06:55;;;;;;;68.43;50.90;;;22.90;60.80;;;;;;4916910;28;94126;-64
2022/06/10 09:09:26;;;;;;;66.85;50.65;;;22.90;61.20;;;;;;4923712;28;93973;-64
2022/06/10 09:12:24;;;;;;;63.00;50.58;;;22.90;61.80;;;;;;4922391;28;91474;-56
2022/06/10 09:14:54;;;;;;;62.17;50.33;;;22.90;62.30;;;;;;4921207;28;90621;-58
2022/06/10 09:17:55;;;;;;;67.85;50.92;;;23.10;62.50;;;;;;4926275;28;90514;-58
2022/06/10 09:20:25;;;;;;;;;;;23.20;63.10;;;;;;4912972;28;89932;-57
2022/06/10 09:23:12;;;;;;;67.00;51.45;;;23.30;63.10;;;;;;4914465;28;90094;-57
2022/06/10 09:25:44;;;;;;;72.65;52.80;;;23.10;63.00;;;;;;4911441;28;89935;-47
2022/06/10 09:28:10;;;;;;;68.47;52.03;;;23.10;63.30;;;;;;4920768;28;89851;-50
2022/06/10 09:30:57;;;;;;;69.68;52.55;;;23.20;63.10;;;;;;4920971;28;89853;-48
2022/06/10 09:33:34;;;;;;;68.10;51.80;;;23.40;62.40;;;;;;4925638;28;92951;-52
2022/06/10 09:36:27;;;;;;;67.90;51.30;;;23.40;62.80;;;;;;4920996;28;91035;-48
2022/06/10 09:40:36;;;;;;;64.68;51.55;;;23.20;64.10;;;;;;4918880;28;90683;-53
2022/06/10 09:42:08;;;;;;;63.45;51.13;;;23.20;64.30;;;;;;4917166;28;90867;-57
2022/06/10 09:44:56;;;;;;;67.22;51.45;;;23.20;64.70;;;;;;4919736;28;92737;-56
2022/06/10 09:47:45;;;;;;;67.72;51.72;;;23.10;65.00;;;;;;4921007;28;91288;-61
2022/06/10 09:50:17;;;;;;;67.90;51.40;;;23.20;65.30;;;;;;4922074;28;90695;-51
2022/06/10 09:53:24;;;;;;;65.10;51.33;;;23.20;66.00;;;;;;4924386;28;89727;-59
2022/06/10 09:56:16;;;;;;;72.10;51.35;;;23.20;66.20;;;;;;4903409;28;91013;-57
2022/06/10 09:59:19;;;;;;;65.85;51.13;;;23.20;66.50;;;;;;4918927;28;90090;-56
2022/06/10 10:02:15;;;;;;;67.80;51.92;;;23.20;66.10;;;;;;4921089;28;90617;-50
2022/06/10 10:05:10;;;;;;;67.93;51.72;;;23.40;65.40;;;;;;4921691;28;89615;-54
2022/06/10 10:07:44;;;;;;;66.80;51.90;;;23.30;65.50;;;;;;4911518;28;90480;-57
2022/06/10 10:10:40;;;;;;;68.72;52.38;;;23.50;65.30;;;;;;4915143;28;91947;-49
2022/06/10 10:13:33;;;;;;;67.32;51.88;;;23.60;64.80;;;;;;4910069;28;91623;-50
2022/06/10 10:16:08;;;;;;;68.63;51.53;;;23.50;65.40;;;;;;4916738;28;90669;-53
2022/06/10 10:18:55;;;;;;;66.70;51.17;;;23.50;65.90;;;;;;4910385;28;91043;-54
2022/06/10 10:21:41;;;;;;;66.22;51.33;;;23.50;66.50;;;;;;4915886;28;90553;-53
2022/06/10 10:24:16;;;;;;;65.47;51.38;;;23.60;65.90;;;;;;4906853;28;95457;-56
2022/06/10 10:26:44;;;;;;;68.40;51.45;;;23.60;66.10;;;;;;4906221;28;92138;-55
2022/06/10 10:29:15;;;;;;;69.72;51.40;;;23.70;66.20;;;;;;4905019;28;91806;-50
2022/06/10 10:31:49;;;;;;;65.32;51.05;;;23.60;66.90;;;;;;4912622;28;90428;-55
2022/06/10 10:34:21;;;;;;;65.15;51.33;;;23.60;67.20;;;;;;4915008;28;91652;-51
2022/06/10 10:36:54;;;;;;;67.68;51.22;;;23.50;67.60;;;;;;4901257;28;90576;-50
2022/06/10 10:39:35;;;;;;;64.68;51.35;;;23.60;66.90;;;;;;4910892;28;93697;-51
2022/06/10 10:42:12;;;;;;;67.38;51.17;;;23.50;67.00;;;;;;4914809;28;91131;-51
2022/06/10 10:44:44;;;;;;;65.55;50.85;;;23.50;66.80;;;;;;4924581;28;90213;-51
2022/06/10 10:47:10;;;;;;;66.13;51.17;;;23.40;66.60;;;;;;4914023;28;89774;-54
2022/06/10 10:49:50;;;;;;;67.20;51.10;;;23.50;66.60;;;;;;4919927;28;90518;-54
2022/06/10 10:52:21;;;;;;;67.13;51.15;;;23.50;66.60;;;;;;4920869;28;91391;-55
2022/06/10 10:54:52;;;;;;;67.50;51.67;;;23.50;66.50;;;;;;4913883;28;90046;-58
2022/06/10 10:57:26;;;;;;;68.95;51.35;;;23.50;66.10;;;;;;4921390;28;90496;-58
2022/06/10 11:00:01;;;;;;;64.72;51.35;;;23.60;65.90;;;;;;4907840;28;91453;-57
2022/06/10 11:02:48;;;;;;;67.28;51.35;;;23.60;65.90;;;;;;4907913;28;90931;-57
2022/06/10 11:05:17;;;;;;;65.90;51.22;;;23.60;65.80;;;;;;4908139;28;91628;-60
2022/06/10 11:07:46;;;;;;;65.43;51.08;;;23.70;65.90;;;;;;4893912;28;93536;-55
2022/06/10 11:10:21;;;;;;;66.22;51.28;;;23.70;65.90;;;;;;4911175;28;90170;-50
2022/06/10 11:12:48;;;;;;;67.25;51.05;;;23.60;66.70;;;;;;4900928;28;90304;-46
2022/06/10 11:15:16;;;;;;;64.00;51.17;;;23.70;65.90;;;;;;4899668;28;93010;-53
2022/06/10 11:17:43;;;;;;;68.60;51.75;;;23.70;66.20;;;;;;4906256;28;90222;-52
2022/06/10 11:20:16;;;;;;;67.30;51.35;;;23.80;66.30;;;;;;4904703;28;90141;-58
2022/06/10 11:22:44;;;;;;;65.45;51.20;;;23.80;66.20;;;;;;4915477;28;89862;-58
2022/06/10 11:25:14;;;;;;;68.53;54.45;;;23.80;66.20;;;;;;4904020;28;90424;-48
2022/06/10 11:27:49;;;;;;;65.95;53.20;;;23.80;67.50;;;;;;4892006;28;96248;-59
2022/06/10 11:30:15;;;;;;;71.70;53.35;;;23.80;67.00;;;;;;4904904;28;96608;-47
2022/06/10 11:32:50;;;;;;;66.82;53.08;;;23.90;67.00;;;;;;4899042;28;90192;-49
2022/06/10 11:35:24;;;;;;;66.82;53.85;;;23.90;67.40;;;;;;4910255;28;91901;-54
2022/06/10 11:38:02;;;;;;;72.05;53.03;;;23.90;67.70;;;;;;4902497;28;91223;-59
2022/06/10 11:40:36;;;;;;;67.65;53.10;;;24.00;67.70;;;;;;4906180;28;89655;-59
2022/06/10 11:43:15;;;;;;;65.15;53.25;;;24.00;67.80;;;;;;4897575;28;96906;-60
2022/06/10 11:45:52;;;;;;;67.53;52.97;;;24.10;67.70;;;;;;4903524;28;92362;-53
2022/06/10 11:48:46;;;;;;;67.63;53.10;;;24.00;67.80;;;;;;4887666;28;89697;-58
2022/06/10 11:51:46;;;;;;;65.13;51.70;;;24.10;65.30;;;;;;4895860;28;91666;-56
2022/06/10 11:54:26;;;;;;;67.63;52.03;;;24.10;65.30;;;;;;4889621;28;91615;-58
2022/06/10 12:00:06;;;;;;;67.32;52.20;;;24.10;62.90;;;;;;4900971;28;91765;-58
2022/06/10 12:02:46;;;;;;;70.90;52.03;;;24.10;63.20;;;;;;4901506;28;90121;-58
2022/06/10 12:05:24;;;;;;;66.57;51.92;;;24.10;63.80;;;;;;4902626;28;90227;-58
2022/06/10 12:07:59;;;;;;;67.05;51.88;;;24.10;62.50;;;;;;4897833;28;91683;-55
2022/06/10 12:10:27;;;;;;;65.82;51.80;;;24.10;64.00;;;;;;4895839;28;91209;-57
2022/06/10 12:12:55;;;;;;;65.63;52.25;;;24.10;63.10;;;;;;4895502;28;92226;-56
2022/06/10 12:15:34;;;;;;;65.22;52.25;;;24.10;63.10;;;;;;4895928;28;90336;-57
2022/06/10 12:18:04;;;;;;;66.43;51.78;;;24.10;62.90;;;;;;4900244;28;91113;-54
2022/06/10 12:20:49;;;;;;;68.43;52.13;;;24.10;63.80;;;;;;4891231;28;91874;-59
2022/06/10 12:23:29;;;;;;;68.65;52.33;;;24.10;62.40;;;;;;4889343;28;96375;-58
2022/06/10 12:26:01;;;;;;;69.07;51.88;;;24.10;62.10;;;;;;4900219;28;92260;-59
2022/06/10 12:28:36;;;;;;;65.80;51.75;;;24.00;64.00;;;;;;4895794;28;90774;-58
2022/06/10 12:31:18;;;;;;;65.95;52.03;;;24.10;63.30;;;;;;4901196;28;89580;-61
2022/06/10 12:33:47;;;;;;;65.90;51.65;;;24.10;62.70;;;;;;4902431;28;92153;-52
2022/06/10 12:36:19;;;;;;;65.93;52.05;;;24.10;61.20;;;;;;4894145;28;90723;-56
2022/06/10 12:38:48;;;;;;;65.47;51.42;;;24.10;62.10;;;;;;4890802;28;93863;-51
2022/06/10 12:41:19;;;;;;;65.40;51.88;;;24.10;60.80;;;;;;4906403;28;91186;-51
2022/06/10 12:43:53;;;;;;;65.50;52.25;;;24.20;61.00;;;;;;4898821;28;91079;-50
2022/06/10 12:46:49;;;;;;;65.97;51.88;;;24.20;61.00;;;;;;4904868;28;90091;-48
2022/06/10 12:49:24;;;;;;;67.03;52.15;;;24.20;60.90;;;;;;4901219;28;92890;-47
2022/06/10 12:52:05;;;;;;;66.13;51.88;;;24.20;60.90;;;;;;4887510;28;91156;-47
2022/06/10 12:54:49;;;;;;;64.90;51.38;;;24.20;60.80;;;;;;4898429;28;90596;-55
2022/06/10 12:57:41;;;;;;;66.28;51.80;;;24.20;60.90;;;;;;4894178;28;90618;-52
2022/06/10 13:00:32;;;;;;;64.32;52.03;;;24.20;60.40;;;;;;4895739;28;92561;-59
2022/06/10 13:03:22;;;;;;;63.67;51.80;;;24.20;61.70;;;;;;4887433;28;90813;-59
2022/06/10 13:05:48;;;;;;;66.57;51.67;;;24.20;60.70;;;;;;4897581;28;94972;-58
2022/06/10 13:08:38;;;;;;;64.40;51.30;;;24.20;60.40;;;;;;4902264;28;89605;-57
2022/06/10 13:11:08;;;;;;;64.28;51.47;;;24.30;60.20;;;;;;4905868;28;90142;-58